Flight Track Log - Related Links

Times and Time Zones

All times are in EDT time to prevent confusion due to time zone crossing. See the EJA122 flight status page for this flight to view local times or setup timezone preferences in your user account.

Time Position Orientation Groundspeed Altitude Reporting Facility
EDT Latitude Longitude Course Direction KTS MPH feet Rate Location/Type
Sun 08:16:16 AM 40.9731 -85.1275 73° East 203 234 3,800  Level Chicago Center
Sun 08:17:17 AM 40.9919 -85.0447 73° East 229 264 6,300 2,585 Climbing Chicago Center
Sun 08:18:19 AM 41.0131 -84.9511 73° East 256 295 9,100 2,390 Climbing Chicago Center
Sun 08:19:20 AM 41.0364 -84.8531 72° East 274 315 11,200 1,918 Climbing Chicago Center
Sun 08:20:21 AM 41.0606 -84.7478 73° East 296 341 13,000 1,770 Climbing Chicago Center
Sun 08:21:22 AM 41.0856 -84.6392 73° East 305 351 14,800 1,707 Climbing Chicago Center
Sun 08:22:24 AM 41.1108 -84.5269 73° East 315 362 16,500 1,659 Climbing Chicago Center
Sun 08:23:25 AM 41.1428 -84.3894 73° East 324 373 18,200 1,659 Climbing Chicago Center
Sun 08:24:27 AM 41.1678 -84.2753 74° East 325 374 19,900 1,463 Climbing Chicago Center
Sun 08:25:28 AM 41.1928 -84.1608 74° East 324 373 21,200 1,279 Climbing Chicago Center
Sun 08:26:29 AM 41.2192 -84.0414 74° East 332 382 22,500 1,180 Climbing Chicago Center
Sun 08:27:30 AM 41.2469 -83.9206 73° East 340 391 23,600 1,055 Climbing Chicago Center
Sun 08:28:00 AM 41.2564 -83.8592 78° East 334 384 24,100 1,000 Climbing Cleveland Center
Sun 08:29:00 AM 41.2869 -83.7308 72° East 346 398 25,100 1,050 Climbing Cleveland Center
Sun 08:30:00 AM 41.3136 -83.5994 75° East 359 413 26,200 1,000 Climbing Cleveland Center
Sun 08:31:00 AM 41.3422 -83.4622 74° East 370 426 27,100 950 Climbing Cleveland Center
Sun 08:32:00 AM 41.3725 -83.3281 73° East 375 432 28,100 1,000 Climbing Cleveland Center
Sun 08:33:00 AM 41.4006 -83.1936 74° East 375 432 29,100 1,100 Climbing Cleveland Center
Sun 08:34:00 AM 41.4353 -83.0400 73° East 375 432 30,300 1,100 Climbing Cleveland Center
Sun 08:35:00 AM 41.4631 -82.9053 75° East 375 432 31,300 1,000 Climbing Cleveland Center
Sun 08:36:00 AM 41.4931 -82.7703 73° East 375 432 32,300 1,000 Climbing Cleveland Center
Sun 08:37:00 AM 41.5228 -82.6300 74° East 375 432 33,300 950 Climbing Cleveland Center
Sun 08:38:00 AM 41.5500 -82.4892 75° East 380 437 34,200 800 Climbing Cleveland Center
Sun 08:39:00 AM 41.5794 -82.3514 74° East 380 437 34,900 650 Climbing Cleveland Center
Sun 08:40:00 AM 41.6042 -82.2242 75° East 380 437 35,500 650 Climbing Cleveland Center
Sun 08:41:00 AM 41.6353 -82.0833 73° East 387 445 36,200 750 Climbing Cleveland Center
Sun 08:42:00 AM 41.6642 -81.9394 75° East 393 452 37,000 750 Climbing Cleveland Center
Sun 08:43:00 AM 41.6931 -81.7983 75° East 393 452 37,700 700 Climbing Cleveland Center
Sun 08:44:00 AM 41.7236 -81.6403 75° East 393 452 38,400 650 Climbing Cleveland Center
Sun 08:45:00 AM 41.7519 -81.4989 75° East 393 452 39,000 600 Climbing Cleveland Center
Sun 08:46:00 AM 41.7781 -81.3572 76° East 388 447 39,600 550 Climbing Cleveland Center
Sun 08:47:00 AM 41.8039 -81.2156 76° East 396 456 40,100 500 Climbing Cleveland Center
Sun 08:48:00 AM 41.8317 -81.0736 75° East 391 450 40,600 450 Climbing Cleveland Center
Sun 08:49:00 AM 41.8594 -80.9344 75° East 391 450 41,000 200 Climbing Cleveland Center
Sun 08:50:00 AM 41.8889 -80.7894 75° East 396 456 41,000  Level Cleveland Center
Sun 08:51:00 AM 41.9119 -80.6583 77° East 396 456 41,000  Level Cleveland Center
Sun 08:52:00 AM 41.9494 -80.5161 70° East 396 456 41,000  Level Cleveland Center
Sun 08:53:00 AM 41.9953 -80.3708 67° East 410 472 41,000  Level Cleveland Center
Sun 08:54:00 AM 42.0386 -80.2253 68° East 410 472 41,000  Level Cleveland Center
Sun 08:55:00 AM 42.0819 -80.0797 68° East 418 481 41,000  Level Cleveland Center
Sun 08:56:00 AM 42.1311 -79.9225 67° East 411 473 41,000  Level Cleveland Center
Sun 08:57:00 AM 42.1739 -79.7764 68° East 416 479 41,000  Level Cleveland Center
Sun 08:58:00 AM 42.2186 -79.6300 68° East 416 479 41,000  Level Cleveland Center
Sun 08:59:00 AM 42.2611 -79.4861 68° East 416 479 41,000  Level Cleveland Center
Sun 09:00:00 AM 42.3078 -79.3450 66° East 416 479 41,000  Level Cleveland Center
Sun 09:01:00 AM 42.3644 -79.2092 61° Northeast 416 479 41,000 -500 Level Cleveland Center
Sun 09:02:00 AM 42.4192 -79.0728 61° Northeast 411 473 40,000 -1,200 Descending Cleveland Center
Sun 09:03:00 AM 42.4697 -78.9561 60° Northeast 401 461 38,600 -1,450 Descending Cleveland Center
Sun 09:04:00 AM 42.5239 -78.8197 62° Northeast 401 461 37,100 -1,500 Descending Cleveland Center
Sun 09:05:00 AM 42.5803 -78.6883 60° Northeast 401 461 35,600 -1,500 Descending Cleveland Center
Sun 09:06:00 AM 42.6381 -78.5456 61° Northeast 408 470 34,100 -1,300 Descending Cleveland Center
Sun 09:07:00 AM 42.6981 -78.3994 61° Northeast 420 483 33,000 -550 Descending Cleveland Center
Sun 09:08:00 AM 42.7536 -78.2617 61° Northeast 426 490 33,000  Level Cleveland Center
Sun 09:09:00 AM 42.8111 -78.1181 61° Northeast 426 490 33,000  Level Cleveland Center
Sun 09:10:00 AM 42.8744 -77.9597 61° Northeast 426 490 33,000  Level Cleveland Center
Sun 09:11:00 AM 42.9314 -77.8100 63° Northeast 426 490 33,000  Level Cleveland Center
Sun 09:12:00 AM 42.9922 -77.6594 61° Northeast 431 496 33,000  Level Cleveland Center
Sun 09:13:00 AM 43.0489 -77.5119 62° Northeast 437 503 33,000  Level Cleveland Center
Sun 09:14:00 AM 43.1072 -77.3611 62° Northeast 437 503 33,000  Level Cleveland Center
Sun 09:15:00 AM 43.1656 -77.2131 62° Northeast 437 503 33,000  Level Cleveland Center
Sun 09:17:16 AM 43.2911 -76.8936 62° Northeast 431 496 33,000  Level Boston Center
Sun 09:18:16 AM 43.3447 -76.7461 63° Northeast 431 496 33,000  Level Boston Center
Sun 09:19:15 AM 43.4092 -76.5819 62° Northeast 436 502 33,000  Level Boston Center
Sun 09:20:16 AM 43.4644 -76.4339 63° Northeast 436 502 33,000  Level Boston Center
Sun 09:21:16 AM 43.5133 -76.2825 66° East 431 496 33,000  Level Boston Center
Sun 09:22:16 AM 43.5619 -76.1339 66° East 431 496 33,000  Level Boston Center
Sun 09:23:27 AM 43.6106 -75.9819 66° East 431 496 33,000  Level Boston Center
Sun 09:24:28 AM 43.6703 -75.7986 66° East 431 496 33,000  Level Boston Center
Sun 09:25:39 AM 43.7164 -75.6489 67° East 431 496 33,000  Level Boston Center
Sun 09:26:40 AM 43.7756 -75.4653 66° East 431 496 33,000 -942 Level Boston Center
Sun 09:27:40 AM 43.8233 -75.3122 67° East 431 496 31,100 -2,150 Descending Boston Center
Sun 09:28:40 AM 43.8706 -75.1617 66° East 431 496 28,700 -2,350 Descending Boston Center
Sun 09:29:40 AM 43.9181 -75.0053 67° East 431 496 26,400 -2,400 Descending Boston Center
Sun 09:30:40 AM 43.9694 -74.8403 67° East 437 503 23,900 -2,400 Descending Boston Center
Sun 09:31:40 AM 44.0164 -74.6892 67° East 437 503 21,600 -2,250 Descending Boston Center
Sun 09:32:40 AM 44.0608 -74.5375 68° East 426 490 19,400 -1,750 Descending Boston Center
Sun 09:33:40 AM 44.1072 -74.3858 67° East 421 484 18,100 -1,563 Descending Boston Center
Sun 09:34:39 AM 44.1472 -74.2456 68° East 407 468 16,300 -1,664 Descending Boston Center
Sun 09:35:39 AM 44.1822 -74.1308 67° East 400 460 14,800 -1,835 Descending Boston Center
Sun 09:36:40 AM 44.2303 -73.9728 67° East 382 440 12,600 -1,785 Descending Boston Center
Sun 09:37:40 AM 44.2714 -73.8464 66° East 376 433 11,200 -1,300 Descending Boston Center
Sun 09:38:40 AM 44.3164 -73.7369 60° Northeast 354 407 10,000 -1,400 Descending Boston Center
Sun 09:39:40 AM 44.3592 -73.6450 57° Northeast 292 336 8,400 -1,500 Descending Boston Center
Sun 09:40:40 AM 44.4058 -73.5733 48° Northeast 257 296 7,000 -1,400 Descending Boston Center
Sun 09:41:40 AM 44.4503 -73.5014 49° Northeast 244 281 5,600 -1,400 Descending Boston Center
Sun 09:42:40 AM 44.5006 -73.4472 38° Northeast 231 266 4,200 -1,250 Descending Boston Center
Sun 09:43:40 AM 44.5492 -73.3956 37° Northeast 220 253 3,100 -1,000 Descending Boston Center
Sun 09:44:40 AM 44.5642 -73.3375 70° East 165 190 2,200 -450 Descending Boston Center
Sun 09:45:40 AM 44.5397 -73.2672 116° Southeast 175 201 2,200 -450 Level Boston Center
Sun 09:46:40 AM 44.5128 -73.2203 129° Southeast 175 201 1,300 -750 Descending Boston Center
Sun 09:47:40 AM 44.4903 -73.1822 130° Southeast 148 170 700 -450 Descending Boston Center
Sun 09:48:40 AM 44.4717 -73.1558 135° Southeast 119 137 400 -150 Descending Boston Center
Sun 09:49:40 AM 44.4675 -73.1528 152° Southeast 66 76 400  Level Boston Center
Sun 09:50:40 AM 44.4653 -73.1497 136° Southeast 15 17 400  Level Boston Center

Login

Don't have an account? Register now (free) for customized features, flight alerts, and more!